sensor_id;sensor_type;location;lat;lon;timestamp;P1;durP1;ratioP1;P2;durP2;ratioP2
17564;SDS011;62994;52.126;5.596;2023-03-03T00:00:07;30.13;;;17.77;;
17564;SDS011;62994;52.126;5.596;2023-03-03T00:02:35;31.03;;;18.20;;
17564;SDS011;62994;52.126;5.596;2023-03-03T00:05:02;29.60;;;18.47;;
17564;SDS011;62994;52.126;5.596;2023-03-03T00:07:29;33.13;;;19.23;;
17564;SDS011;62994;52.126;5.596;2023-03-03T00:09:57;28.23;;;17.63;;
17564;SDS011;62994;52.126;5.596;2023-03-03T00:12:25;27.47;;;17.57;;
17564;SDS011;62994;52.126;5.596;2023-03-03T00:14:53;33.07;;;18.17;;
17564;SDS011;62994;52.126;5.596;2023-03-03T00:17:21;31.03;;;18.33;;
17564;SDS011;62994;52.126;5.596;2023-03-03T00:19:49;33.43;;;18.03;;
17564;SDS011;62994;52.126;5.596;2023-03-03T00:22:24;31.83;;;18.13;;
17564;SDS011;62994;52.126;5.596;2023-03-03T00:24:54;30.50;;;17.73;;
17564;SDS011;62994;52.126;5.596;2023-03-03T00:27:26;31.60;;;19.17;;
17564;SDS011;62994;52.126;5.596;2023-03-03T00:29:57;29.37;;;17.40;;
17564;SDS011;62994;52.126;5.596;2023-03-03T00:32:25;26.87;;;17.27;;
17564;SDS011;62994;52.126;5.596;2023-03-03T00:34:57;29.50;;;17.67;;
17564;SDS011;62994;52.126;5.596;2023-03-03T00:37:42;27.20;;;16.27;;
17564;SDS011;62994;52.126;5.596;2023-03-03T00:40:20;27.80;;;16.27;;
17564;SDS011;62994;52.126;5.596;2023-03-03T00:42:49;30.23;;;16.97;;
17564;SDS011;62994;52.126;5.596;2023-03-03T00:48:15;29.40;;;15.30;;
17564;SDS011;62994;52.126;5.596;2023-03-03T00:50:46;29.87;;;17.07;;
17564;SDS011;62994;52.126;5.596;2023-03-03T00:53:14;28.77;;;17.33;;
17564;SDS011;62994;52.126;5.596;2023-03-03T00:55:44;30.83;;;16.93;;
17564;SDS011;62994;52.126;5.596;2023-03-03T00:58:12;27.03;;;16.63;;
17564;SDS011;62994;52.126;5.596;2023-03-03T01:00:39;27.30;;;16.00;;
17564;SDS011;62994;52.126;5.596;2023-03-03T01:03:07;26.67;;;15.40;;
17564;SDS011;62994;52.126;5.596;2023-03-03T01:05:36;22.33;;;14.43;;
17564;SDS011;62994;52.126;5.596;2023-03-03T01:08:03;19.60;;;11.33;;
17564;SDS011;62994;52.126;5.596;2023-03-03T01:10:31;23.50;;;13.17;;
17564;SDS011;62994;52.126;5.596;2023-03-03T01:13:03;19.70;;;11.97;;
17564;SDS011;62994;52.126;5.596;2023-03-03T01:15:31;20.40;;;10.90;;
17564;SDS011;62994;52.126;5.596;2023-03-03T01:17:58;20.37;;;12.27;;
17564;SDS011;62994;52.126;5.596;2023-03-03T01:20:25;16.60;;;11.77;;
17564;SDS011;62994;52.126;5.596;2023-03-03T01:23:01;23.57;;;11.87;;
17564;SDS011;62994;52.126;5.596;2023-03-03T01:25:28;20.57;;;11.10;;
17564;SDS011;62994;52.126;5.596;2023-03-03T01:28:00;20.80;;;11.10;;
17564;SDS011;62994;52.126;5.596;2023-03-03T01:30:29;20.53;;;12.40;;
17564;SDS011;62994;52.126;5.596;2023-03-03T01:33:00;21.53;;;12.20;;
17564;SDS011;62994;52.126;5.596;2023-03-03T01:35:27;22.87;;;12.43;;
17564;SDS011;62994;52.126;5.596;2023-03-03T01:37:55;22.63;;;12.33;;
17564;SDS011;62994;52.126;5.596;2023-03-03T01:40:23;22.47;;;12.17;;
17564;SDS011;62994;52.126;5.596;2023-03-03T01:42:51;20.83;;;12.07;;
17564;SDS011;62994;52.126;5.596;2023-03-03T01:45:21;23.23;;;12.43;;
17564;SDS011;62994;52.126;5.596;2023-03-03T01:47:51;20.37;;;12.00;;
17564;SDS011;62994;52.126;5.596;2023-03-03T01:50:28;21.17;;;12.00;;
17564;SDS011;62994;52.126;5.596;2023-03-03T01:53:01;23.10;;;13.13;;
17564;SDS011;62994;52.126;5.596;2023-03-03T01:55:33;20.97;;;12.67;;
17564;SDS011;62994;52.126;5.596;2023-03-03T01:58:02;22.93;;;13.27;;
17564;SDS011;62994;52.126;5.596;2023-03-03T02:00:34;22.97;;;12.53;;
17564;SDS011;62994;52.126;5.596;2023-03-03T02:03:03;24.50;;;13.27;;
17564;SDS011;62994;52.126;5.596;2023-03-03T02:05:30;27.00;;;12.53;;
17564;SDS011;62994;52.126;5.596;2023-03-03T02:07:58;24.17;;;12.73;;
17564;SDS011;62994;52.126;5.596;2023-03-03T02:10:26;23.27;;;12.80;;
17564;SDS011;62994;52.126;5.596;2023-03-03T02:12:54;20.00;;;13.27;;
17564;SDS011;62994;52.126;5.596;2023-03-03T02:15:24;25.90;;;13.20;;
17564;SDS011;62994;52.126;5.596;2023-03-03T02:17:55;22.57;;;12.60;;
17564;SDS011;62994;52.126;5.596;2023-03-03T02:20:27;20.40;;;12.80;;
17564;SDS011;62994;52.126;5.596;2023-03-03T02:23:03;24.03;;;12.73;;
17564;SDS011;62994;52.126;5.596;2023-03-03T02:25:33;23.30;;;13.13;;
17564;SDS011;62994;52.126;5.596;2023-03-03T02:28:08;27.93;;;13.53;;
17564;SDS011;62994;52.126;5.596;2023-03-03T02:30:36;23.33;;;12.43;;
17564;SDS011;62994;52.126;5.596;2023-03-03T02:33:04;22.63;;;12.43;;
17564;SDS011;62994;52.126;5.596;2023-03-03T02:35:32;25.10;;;12.83;;
17564;SDS011;62994;52.126;5.596;2023-03-03T02:38:06;23.20;;;11.90;;
17564;SDS011;62994;52.126;5.596;2023-03-03T02:40:41;22.53;;;12.87;;
17564;SDS011;62994;52.126;5.596;2023-03-03T02:43:14;24.70;;;12.70;;
17564;SDS011;62994;52.126;5.596;2023-03-03T02:45:43;21.33;;;11.97;;
17564;SDS011;62994;52.126;5.596;2023-03-03T02:48:10;28.50;;;14.00;;
17564;SDS011;62994;52.126;5.596;2023-03-03T02:50:37;28.33;;;14.17;;
17564;SDS011;62994;52.126;5.596;2023-03-03T02:53:04;23.20;;;12.20;;
17564;SDS011;62994;52.126;5.596;2023-03-03T02:55:31;22.97;;;13.30;;
17564;SDS011;62994;52.126;5.596;2023-03-03T02:57:58;23.93;;;13.27;;
17564;SDS011;62994;52.126;5.596;2023-03-03T03:00:31;20.57;;;12.90;;
17564;SDS011;62994;52.126;5.596;2023-03-03T03:02:58;22.80;;;13.20;;
17564;SDS011;62994;52.126;5.596;2023-03-03T03:05:25;22.53;;;13.73;;
17564;SDS011;62994;52.126;5.596;2023-03-03T03:07:53;25.93;;;13.70;;
17564;SDS011;62994;52.126;5.596;2023-03-03T03:10:20;24.33;;;13.87;;
17564;SDS011;62994;52.126;5.596;2023-03-03T03:12:47;27.60;;;13.93;;
17564;SDS011;62994;52.126;5.596;2023-03-03T03:15:13;29.63;;;14.73;;
17564;SDS011;62994;52.126;5.596;2023-03-03T03:17:42;24.33;;;14.10;;
17564;SDS011;62994;52.126;5.596;2023-03-03T03:20:09;24.10;;;13.27;;
17564;SDS011;62994;52.126;5.596;2023-03-03T03:22:37;21.23;;;13.40;;
17564;SDS011;62994;52.126;5.596;2023-03-03T03:25:04;20.00;;;12.70;;
17564;SDS011;62994;52.126;5.596;2023-03-03T03:27:32;23.53;;;13.80;;
17564;SDS011;62994;52.126;5.596;2023-03-03T03:29:59;20.73;;;12.63;;
17564;SDS011;62994;52.126;5.596;2023-03-03T03:32:27;19.10;;;12.07;;
17564;SDS011;62994;52.126;5.596;2023-03-03T03:34:55;20.33;;;12.57;;
17564;SDS011;62994;52.126;5.596;2023-03-03T03:37:22;18.57;;;11.97;;
17564;SDS011;62994;52.126;5.596;2023-03-03T03:39:49;22.63;;;12.33;;
17564;SDS011;62994;52.126;5.596;2023-03-03T03:42:16;16.20;;;11.60;;
17564;SDS011;62994;52.126;5.596;2023-03-03T03:44:43;22.37;;;12.47;;
17564;SDS011;62994;52.126;5.596;2023-03-03T03:47:10;21.30;;;12.07;;
17564;SDS011;62994;52.126;5.596;2023-03-03T03:49:37;18.90;;;11.07;;
17564;SDS011;62994;52.126;5.596;2023-03-03T03:52:05;18.70;;;12.07;;
17564;SDS011;62994;52.126;5.596;2023-03-03T03:54:32;17.67;;;11.47;;
17564;SDS011;62994;52.126;5.596;2023-03-03T03:56:59;16.57;;;11.07;;
17564;SDS011;62994;52.126;5.596;2023-03-03T03:59:26;18.07;;;11.33;;
17564;SDS011;62994;52.126;5.596;2023-03-03T04:01:53;17.13;;;11.40;;
17564;SDS011;62994;52.126;5.596;2023-03-03T04:04:20;21.57;;;11.63;;
17564;SDS011;62994;52.126;5.596;2023-03-03T04:06:47;19.40;;;12.13;;
17564;SDS011;62994;52.126;5.596;2023-03-03T04:09:15;17.27;;;11.07;;
17564;SDS011;62994;52.126;5.596;2023-03-03T04:11:42;16.17;;;10.70;;
17564;SDS011;62994;52.126;5.596;2023-03-03T04:14:09;21.40;;;11.23;;
17564;SDS011;62994;52.126;5.596;2023-03-03T04:16:36;14.37;;;10.13;;
17564;SDS011;62994;52.126;5.596;2023-03-03T04:19:03;17.10;;;10.90;;
17564;SDS011;62994;52.126;5.596;2023-03-03T04:21:30;14.43;;;10.17;;
17564;SDS011;62994;52.126;5.596;2023-03-03T04:23:57;18.03;;;10.07;;
17564;SDS011;62994;52.126;5.596;2023-03-03T04:26:26;15.47;;;10.17;;
17564;SDS011;62994;52.126;5.596;2023-03-03T04:28:53;15.80;;;10.67;;
17564;SDS011;62994;52.126;5.596;2023-03-03T04:31:19;20.20;;;11.83;;
17564;SDS011;62994;52.126;5.596;2023-03-03T04:33:51;17.97;;;10.20;;
17564;SDS011;62994;52.126;5.596;2023-03-03T04:36:18;16.73;;;10.17;;
17564;SDS011;62994;52.126;5.596;2023-03-03T04:38:45;17.10;;;10.07;;
17564;SDS011;62994;52.126;5.596;2023-03-03T04:41:17;18.77;;;10.80;;
17564;SDS011;62994;52.126;5.596;2023-03-03T04:43:45;18.13;;;10.07;;
17564;SDS011;62994;52.126;5.596;2023-03-03T04:46:12;18.63;;;10.47;;
17564;SDS011;62994;52.126;5.596;2023-03-03T04:48:39;17.27;;;10.33;;
17564;SDS011;62994;52.126;5.596;2023-03-03T04:51:07;20.60;;;11.50;;
17564;SDS011;62994;52.126;5.596;2023-03-03T04:53:34;16.87;;;10.43;;
17564;SDS011;62994;52.126;5.596;2023-03-03T04:56:02;11.80;;;8.90;;
17564;SDS011;62994;52.126;5.596;2023-03-03T04:58:30;18.07;;;10.03;;
17564;SDS011;62994;52.126;5.596;2023-03-03T05:00:58;15.50;;;10.47;;
17564;SDS011;62994;52.126;5.596;2023-03-03T05:03:25;14.47;;;10.27;;
17564;SDS011;62994;52.126;5.596;2023-03-03T05:05:52;16.00;;;10.20;;
17564;SDS011;62994;52.126;5.596;2023-03-03T05:08:19;16.43;;;10.50;;
17564;SDS011;62994;52.126;5.596;2023-03-03T05:10:50;19.50;;;11.10;;
17564;SDS011;62994;52.126;5.596;2023-03-03T05:13:18;17.90;;;11.07;;
17564;SDS011;62994;52.126;5.596;2023-03-03T05:15:48;22.97;;;10.63;;
17564;SDS011;62994;52.126;5.596;2023-03-03T05:18:17;19.70;;;11.60;;
17564;SDS011;62994;52.126;5.596;2023-03-03T05:20:45;23.97;;;11.80;;
17564;SDS011;62994;52.126;5.596;2023-03-03T05:23:12;18.23;;;10.97;;
17564;SDS011;62994;52.126;5.596;2023-03-03T05:25:39;20.57;;;11.57;;
17564;SDS011;62994;52.126;5.596;2023-03-03T05:28:07;20.17;;;11.47;;
17564;SDS011;62994;52.126;5.596;2023-03-03T05:30:34;21.40;;;11.80;;
17564;SDS011;62994;52.126;5.596;2023-03-03T05:33:02;20.13;;;11.37;;
17564;SDS011;62994;52.126;5.596;2023-03-03T05:35:30;20.10;;;11.30;;
17564;SDS011;62994;52.126;5.596;2023-03-03T05:37:57;23.07;;;12.00;;
17564;SDS011;62994;52.126;5.596;2023-03-03T05:40:25;18.73;;;10.10;;
17564;SDS011;62994;52.126;5.596;2023-03-03T05:42:52;18.47;;;10.87;;
17564;SDS011;62994;52.126;5.596;2023-03-03T05:45:19;20.73;;;11.17;;
17564;SDS011;62994;52.126;5.596;2023-03-03T05:47:48;19.20;;;10.23;;
17564;SDS011;62994;52.126;5.596;2023-03-03T05:50:16;20.27;;;10.03;;
17564;SDS011;62994;52.126;5.596;2023-03-03T05:52:46;24.50;;;11.20;;
17564;SDS011;62994;52.126;5.596;2023-03-03T05:55:13;22.30;;;11.63;;
17564;SDS011;62994;52.126;5.596;2023-03-03T05:57:40;24.60;;;11.20;;
17564;SDS011;62994;52.126;5.596;2023-03-03T06:00:08;23.83;;;11.17;;
17564;SDS011;62994;52.126;5.596;2023-03-03T06:02:35;25.60;;;10.77;;
17564;SDS011;62994;52.126;5.596;2023-03-03T06:05:02;21.47;;;10.70;;
17564;SDS011;62994;52.126;5.596;2023-03-03T06:07:30;18.23;;;8.97;;
17564;SDS011;62994;52.126;5.596;2023-03-03T06:09:59;15.27;;;8.63;;
17564;SDS011;62994;52.126;5.596;2023-03-03T06:12:26;20.27;;;9.90;;
17564;SDS011;62994;52.126;5.596;2023-03-03T06:14:53;18.03;;;9.33;;
17564;SDS011;62994;52.126;5.596;2023-03-03T06:17:20;17.63;;;9.03;;
17564;SDS011;62994;52.126;5.596;2023-03-03T06:19:47;17.47;;;9.87;;
17564;SDS011;62994;52.126;5.596;2023-03-03T06:22:14;18.07;;;9.93;;
17564;SDS011;62994;52.126;5.596;2023-03-03T06:24:41;17.43;;;9.40;;
17564;SDS011;62994;52.126;5.596;2023-03-03T06:27:10;24.03;;;10.33;;
17564;SDS011;62994;52.126;5.596;2023-03-03T06:29:38;21.73;;;11.13;;
17564;SDS011;62994;52.126;5.596;2023-03-03T06:32:05;23.40;;;11.03;;
17564;SDS011;62994;52.126;5.596;2023-03-03T06:34:32;25.77;;;11.10;;
17564;SDS011;62994;52.126;5.596;2023-03-03T06:36:59;29.67;;;11.87;;
17564;SDS011;62994;52.126;5.596;2023-03-03T06:39:26;26.50;;;11.87;;
17564;SDS011;62994;52.126;5.596;2023-03-03T06:41:53;20.97;;;10.40;;
17564;SDS011;62994;52.126;5.596;2023-03-03T06:44:21;21.00;;;10.83;;
17564;SDS011;62994;52.126;5.596;2023-03-03T06:46:48;24.50;;;11.37;;
17564;SDS011;62994;52.126;5.596;2023-03-03T06:49:16;30.17;;;11.67;;
17564;SDS011;62994;52.126;5.596;2023-03-03T06:51:43;24.80;;;10.73;;
17564;SDS011;62994;52.126;5.596;2023-03-03T06:54:11;25.53;;;10.70;;
17564;SDS011;62994;52.126;5.596;2023-03-03T06:56:39;28.47;;;10.93;;
17564;SDS011;62994;52.126;5.596;2023-03-03T06:59:09;23.83;;;11.33;;
17564;SDS011;62994;52.126;5.596;2023-03-03T07:01:39;18.33;;;10.40;;
17564;SDS011;62994;52.126;5.596;2023-03-03T07:04:15;22.27;;;10.73;;
17564;SDS011;62994;52.126;5.596;2023-03-03T07:06:49;22.07;;;10.53;;
17564;SDS011;62994;52.126;5.596;2023-03-03T07:09:18;20.27;;;9.37;;
17564;SDS011;62994;52.126;5.596;2023-03-03T07:11:48;21.00;;;10.20;;
17564;SDS011;62994;52.126;5.596;2023-03-03T07:14:17;19.90;;;10.40;;
17564;SDS011;62994;52.126;5.596;2023-03-03T07:16:47;25.13;;;11.63;;
17564;SDS011;62994;52.126;5.596;2023-03-03T07:19:22;23.03;;;10.53;;
17564;SDS011;62994;52.126;5.596;2023-03-03T07:21:57;21.70;;;10.60;;
17564;SDS011;62994;52.126;5.596;2023-03-03T07:24:25;17.10;;;9.43;;
17564;SDS011;62994;52.126;5.596;2023-03-03T07:26:54;28.93;;;11.40;;
17564;SDS011;62994;52.126;5.596;2023-03-03T07:29:27;17.67;;;10.30;;
17564;SDS011;62994;52.126;5.596;2023-03-03T07:31:57;24.23;;;12.27;;
17564;SDS011;62994;52.126;5.596;2023-03-03T07:34:29;24.38;;;13.82;;
17564;SDS011;62994;52.126;5.596;2023-03-03T07:37:08;21.90;;;10.97;;
17564;SDS011;62994;52.126;5.596;2023-03-03T07:39:41;20.97;;;11.00;;
17564;SDS011;62994;52.126;5.596;2023-03-03T07:42:14;23.73;;;11.13;;
17564;SDS011;62994;52.126;5.596;2023-03-03T07:44:46;22.70;;;11.03;;
17564;SDS011;62994;52.126;5.596;2023-03-03T07:47:21;22.10;;;10.90;;
17564;SDS011;62994;52.126;5.596;2023-03-03T07:49:51;20.60;;;10.60;;
17564;SDS011;62994;52.126;5.596;2023-03-03T07:52:23;20.93;;;10.03;;
17564;SDS011;62994;52.126;5.596;2023-03-03T07:54:57;21.00;;;10.27;;
17564;SDS011;62994;52.126;5.596;2023-03-03T07:57:26;22.50;;;10.10;;
17564;SDS011;62994;52.126;5.596;2023-03-03T08:00:01;18.60;;;9.53;;
17564;SDS011;62994;52.126;5.596;2023-03-03T08:02:53;19.37;;;9.63;;
17564;SDS011;62994;52.126;5.596;2023-03-03T08:05:28;21.27;;;10.53;;
17564;SDS011;62994;52.126;5.596;2023-03-03T08:10:42;24.50;;;10.60;;
17564;SDS011;62994;52.126;5.596;2023-03-03T08:13:15;21.47;;;10.10;;
17564;SDS011;62994;52.126;5.596;2023-03-03T08:15:44;21.37;;;10.53;;
17564;SDS011;62994;52.126;5.596;2023-03-03T08:18:17;21.37;;;10.67;;
17564;SDS011;62994;52.126;5.596;2023-03-03T08:20:48;26.03;;;11.50;;
17564;SDS011;62994;52.126;5.596;2023-03-03T08:23:17;20.60;;;10.33;;
17564;SDS011;62994;52.126;5.596;2023-03-03T08:25:45;18.17;;;10.37;;
17564;SDS011;62994;52.126;5.596;2023-03-03T08:28:14;23.63;;;12.38;;
17564;SDS011;62994;52.126;5.596;2023-03-03T08:30:41;26.07;;;12.70;;
17564;SDS011;62994;52.126;5.596;2023-03-03T08:33:08;23.10;;;10.43;;
17564;SDS011;62994;52.126;5.596;2023-03-03T08:35:38;25.83;;;11.17;;
17564;SDS011;62994;52.126;5.596;2023-03-03T08:38:05;20.20;;;10.73;;
17564;SDS011;62994;52.126;5.596;2023-03-03T08:40:33;22.47;;;10.77;;
17564;SDS011;62994;52.126;5.596;2023-03-03T08:43:01;26.00;;;11.87;;
17564;SDS011;62994;52.126;5.596;2023-03-03T08:45:28;25.10;;;11.77;;
17564;SDS011;62994;52.126;5.596;2023-03-03T08:47:55;26.93;;;11.53;;
17564;SDS011;62994;52.126;5.596;2023-03-03T08:50:24;22.57;;;10.27;;
17564;SDS011;62994;52.126;5.596;2023-03-03T08:52:52;19.77;;;10.87;;
17564;SDS011;62994;52.126;5.596;2023-03-03T08:55:20;24.00;;;12.07;;
17564;SDS011;62994;52.126;5.596;2023-03-03T08:57:47;17.53;;;10.53;;
17564;SDS011;62994;52.126;5.596;2023-03-03T09:00:15;23.63;;;11.15;;
17564;SDS011;62994;52.126;5.596;2023-03-03T09:02:43;22.20;;;11.32;;
17564;SDS011;62994;52.126;5.596;2023-03-03T09:05:10;25.15;;;10.98;;
17564;SDS011;62994;52.126;5.596;2023-03-03T09:07:38;20.37;;;11.17;;
17564;SDS011;62994;52.126;5.596;2023-03-03T09:10:07;21.17;;;10.00;;
17564;SDS011;62994;52.126;5.596;2023-03-03T09:12:37;16.27;;;9.63;;
17564;SDS011;62994;52.126;5.596;2023-03-03T09:15:17;19.43;;;9.63;;
17564;SDS011;62994;52.126;5.596;2023-03-03T09:17:47;18.93;;;9.30;;
17564;SDS011;62994;52.126;5.596;2023-03-03T09:20:31;15.20;;;9.03;;
17564;SDS011;62994;52.126;5.596;2023-03-03T09:23:24;19.08;;;10.05;;
17564;SDS011;62994;52.126;5.596;2023-03-03T09:25:57;15.60;;;8.65;;
17564;SDS011;62994;52.126;5.596;2023-03-03T09:28:31;13.90;;;8.18;;
17564;SDS011;62994;52.126;5.596;2023-03-03T09:30:59;9.60;;;7.88;;
17564;SDS011;62994;52.126;5.596;2023-03-03T09:33:28;14.23;;;7.53;;
17564;SDS011;62994;52.126;5.596;2023-03-03T09:36:18;11.80;;;7.93;;
17564;SDS011;62994;52.126;5.596;2023-03-03T09:38:48;12.10;;;7.63;;
17564;SDS011;62994;52.126;5.596;2023-03-03T09:41:24;9.13;;;7.40;;
17564;SDS011;62994;52.126;5.596;2023-03-03T09:44:15;11.85;;;7.53;;
17564;SDS011;62994;52.126;5.596;2023-03-03T09:46:59;8.77;;;6.65;;
17564;SDS011;62994;52.126;5.596;2023-03-03T09:49:39;12.52;;;7.45;;
17564;SDS011;62994;52.126;5.596;2023-03-03T09:52:18;10.18;;;7.60;;
17564;SDS011;62994;52.126;5.596;2023-03-03T09:54:55;9.23;;;6.50;;
17564;SDS011;62994;52.126;5.596;2023-03-03T09:57:34;10.65;;;6.60;;
17564;SDS011;62994;52.126;5.596;2023-03-03T10:00:15;11.38;;;6.13;;
17564;SDS011;62994;52.126;5.596;2023-03-03T10:02:51;10.27;;;6.90;;
17564;SDS011;62994;52.126;5.596;2023-03-03T10:05:38;7.78;;;6.90;;
17564;SDS011;62994;52.126;5.596;2023-03-03T10:08:19;7.82;;;7.03;;
17564;SDS011;62994;52.126;5.596;2023-03-03T10:11:00;10.07;;;6.75;;
17564;SDS011;62994;52.126;5.596;2023-03-03T10:13:38;8.55;;;5.75;;
17564;SDS011;62994;52.126;5.596;2023-03-03T10:19:12;7.13;;;5.88;;
17564;SDS011;62994;52.126;5.596;2023-03-03T10:21:49;7.47;;;6.10;;
17564;SDS011;62994;52.126;5.596;2023-03-03T10:24:23;6.07;;;5.47;;
17564;SDS011;62994;52.126;5.596;2023-03-03T10:26:59;9.23;;;6.05;;
17564;SDS011;62994;52.126;5.596;2023-03-03T10:29:40;16.10;;;5.75;;
17564;SDS011;62994;52.126;5.596;2023-03-03T10:35:11;8.38;;;5.80;;
17564;SDS011;62994;52.126;5.596;2023-03-03T10:37:50;7.68;;;5.93;;
17564;SDS011;62994;52.126;5.596;2023-03-03T10:40:30;6.70;;;5.47;;
17564;SDS011;62994;52.126;5.596;2023-03-03T10:43:07;6.13;;;5.40;;
17564;SDS011;62994;52.126;5.596;2023-03-03T10:45:59;6.53;;;4.97;;
17564;SDS011;62994;52.126;5.596;2023-03-03T10:48:57;5.63;;;5.03;;
17564;SDS011;62994;52.126;5.596;2023-03-03T10:51:40;9.05;;;5.00;;
17564;SDS011;62994;52.126;5.596;2023-03-03T10:54:21;5.28;;;4.70;;
17564;SDS011;62994;52.126;5.596;2023-03-03T10:57:06;5.32;;;4.88;;
17564;SDS011;62994;52.126;5.596;2023-03-03T10:59:44;5.45;;;4.82;;
17564;SDS011;62994;52.126;5.596;2023-03-03T11:02:21;4.97;;;4.55;;
17564;SDS011;62994;52.126;5.596;2023-03-03T11:05:16;4.30;;;3.97;;
17564;SDS011;62994;52.126;5.596;2023-03-03T11:07:50;4.93;;;4.07;;
17564;SDS011;62994;52.126;5.596;2023-03-03T11:10:26;5.35;;;3.70;;
17564;SDS011;62994;52.126;5.596;2023-03-03T11:13:06;3.40;;;3.10;;
17564;SDS011;62994;52.126;5.596;2023-03-03T11:15:42;6.22;;;3.85;;
17564;SDS011;62994;52.126;5.596;2023-03-03T11:18:22;3.95;;;3.65;;
17564;SDS011;62994;52.126;5.596;2023-03-03T11:20:59;3.70;;;3.40;;
17564;SDS011;62994;52.126;5.596;2023-03-03T11:23:40;4.15;;;3.75;;
17564;SDS011;62994;52.126;5.596;2023-03-03T11:26:20;4.22;;;3.63;;
17564;SDS011;62994;52.126;5.596;2023-03-03T11:29:06;5.75;;;3.30;;
17564;SDS011;62994;52.126;5.596;2023-03-03T11:31:52;4.75;;;3.50;;
17564;SDS011;62994;52.126;5.596;2023-03-03T11:34:28;4.18;;;3.20;;
17564;SDS011;62994;52.126;5.596;2023-03-03T11:37:11;3.33;;;2.38;;
17564;SDS011;62994;52.126;5.596;2023-03-03T11:39:44;2.35;;;2.15;;
17564;SDS011;62994;52.126;5.596;2023-03-03T11:42:18;3.13;;;2.83;;
17564;SDS011;62994;52.126;5.596;2023-03-03T11:44:51;4.38;;;3.05;;
17564;SDS011;62994;52.126;5.596;2023-03-03T11:47:23;6.80;;;3.13;;
17564;SDS011;62994;52.126;5.596;2023-03-03T11:49:55;2.58;;;2.40;;
17564;SDS011;62994;52.126;5.596;2023-03-03T11:52:27;3.88;;;2.47;;
17564;SDS011;62994;52.126;5.596;2023-03-03T11:55:04;3.15;;;2.85;;
17564;SDS011;62994;52.126;5.596;2023-03-03T11:57:39;4.45;;;2.55;;
17564;SDS011;62994;52.126;5.596;2023-03-03T12:00:17;2.85;;;2.65;;
17564;SDS011;62994;52.126;5.596;2023-03-03T12:02:57;7.25;;;2.70;;
17564;SDS011;62994;52.126;5.596;2023-03-03T12:05:56;3.40;;;3.10;;
17564;SDS011;62994;52.126;5.596;2023-03-03T12:08:46;2.28;;;2.17;;
17564;SDS011;62994;52.126;5.596;2023-03-03T12:11:27;2.78;;;2.55;;
17564;SDS011;62994;52.126;5.596;2023-03-03T12:14:04;3.33;;;2.88;;
17564;SDS011;62994;52.126;5.596;2023-03-03T12:16:42;2.42;;;2.22;;
17564;SDS011;62994;52.126;5.596;2023-03-03T12:19:23;2.17;;;2.08;;
17564;SDS011;62994;52.126;5.596;2023-03-03T12:22:06;3.70;;;2.17;;
17564;SDS011;62994;52.126;5.596;2023-03-03T12:24:50;4.25;;;2.40;;
17564;SDS011;62994;52.126;5.596;2023-03-03T12:27:31;1.60;;;1.50;;
17564;SDS011;62994;52.126;5.596;2023-03-03T12:30:08;2.83;;;1.95;;
17564;SDS011;62994;52.126;5.596;2023-03-03T12:32:46;2.35;;;1.70;;
17564;SDS011;62994;52.126;5.596;2023-03-03T12:35:25;3.95;;;1.50;;
17564;SDS011;62994;52.126;5.596;2023-03-03T12:38:07;1.98;;;1.40;;
17564;SDS011;62994;52.126;5.596;2023-03-03T12:40:44;3.08;;;1.75;;
17564;SDS011;62994;52.126;5.596;2023-03-03T12:43:28;2.72;;;1.40;;
17564;SDS011;62994;52.126;5.596;2023-03-03T12:46:19;1.30;;;1.20;;
17564;SDS011;62994;52.126;5.596;2023-03-03T12:48:50;1.08;;;0.98;;
17564;SDS011;62994;52.126;5.596;2023-03-03T12:51:20;2.58;;;2.15;;
17564;SDS011;62994;52.126;5.596;2023-03-03T12:56:59;1.58;;;1.48;;
17564;SDS011;62994;52.126;5.596;2023-03-03T12:59:33;2.17;;;1.77;;
17564;SDS011;62994;52.126;5.596;2023-03-03T13:05:18;2.13;;;1.65;;
17564;SDS011;62994;52.126;5.596;2023-03-03T13:07:52;1.45;;;1.35;;
17564;SDS011;62994;52.126;5.596;2023-03-03T13:10:33;1.65;;;1.55;;
17564;SDS011;62994;52.126;5.596;2023-03-03T13:13:07;1.60;;;1.30;;
17564;SDS011;62994;52.126;5.596;2023-03-03T13:15:41;1.63;;;1.38;;
17564;SDS011;62994;52.126;5.596;2023-03-03T13:18:20;1.55;;;1.40;;
17564;SDS011;62994;52.126;5.596;2023-03-03T13:20:56;1.27;;;1.13;;
17564;SDS011;62994;52.126;5.596;2023-03-03T13:23:35;2.35;;;1.52;;
17564;SDS011;62994;52.126;5.596;2023-03-03T13:26:15;1.67;;;1.38;;
17564;SDS011;62994;52.126;5.596;2023-03-03T13:28:57;3.45;;;1.85;;
17564;SDS011;62994;52.126;5.596;2023-03-03T13:31:34;1.65;;;1.40;;
17564;SDS011;62994;52.126;5.596;2023-03-03T13:34:06;1.75;;;1.63;;
17564;SDS011;62994;52.126;5.596;2023-03-03T13:36:37;1.45;;;1.15;;
17564;SDS011;62994;52.126;5.596;2023-03-03T13:39:12;1.48;;;1.38;;
17564;SDS011;62994;52.126;5.596;2023-03-03T13:42:00;2.03;;;1.42;;
17564;SDS011;62994;52.126;5.596;2023-03-03T13:44:30;1.75;;;1.52;;
17564;SDS011;62994;52.126;5.596;2023-03-03T13:47:07;1.90;;;1.38;;
17564;SDS011;62994;52.126;5.596;2023-03-03T13:49:47;2.85;;;1.40;;
17564;SDS011;62994;52.126;5.596;2023-03-03T13:52:26;1.70;;;1.60;;
17564;SDS011;62994;52.126;5.596;2023-03-03T13:55:03;1.83;;;1.52;;
17564;SDS011;62994;52.126;5.596;2023-03-03T13:57:59;1.40;;;1.30;;
17564;SDS011;62994;52.126;5.596;2023-03-03T14:00:43;3.67;;;1.38;;
17564;SDS011;62994;52.126;5.596;2023-03-03T14:03:26;2.25;;;1.65;;
17564;SDS011;62994;52.126;5.596;2023-03-03T14:06:25;2.17;;;1.90;;
17564;SDS011;62994;52.126;5.596;2023-03-03T14:09:00;3.55;;;1.63;;
17564;SDS011;62994;52.126;5.596;2023-03-03T14:11:41;2.72;;;1.33;;
17564;SDS011;62994;52.126;5.596;2023-03-03T14:14:25;2.80;;;1.80;;
17564;SDS011;62994;52.126;5.596;2023-03-03T14:17:06;1.50;;;1.40;;
17564;SDS011;62994;52.126;5.596;2023-03-03T14:19:41;1.60;;;1.50;;
17564;SDS011;62994;52.126;5.596;2023-03-03T14:22:15;1.75;;;1.65;;
17564;SDS011;62994;52.126;5.596;2023-03-03T14:27:38;3.45;;;1.70;;
17564;SDS011;62994;52.126;5.596;2023-03-03T14:33:15;2.25;;;1.70;;
17564;SDS011;62994;52.126;5.596;2023-03-03T14:35:49;2.38;;;2.17;;
17564;SDS011;62994;52.126;5.596;2023-03-03T14:38:35;2.00;;;1.77;;
17564;SDS011;62994;52.126;5.596;2023-03-03T14:41:09;2.13;;;2.03;;
17564;SDS011;62994;52.126;5.596;2023-03-03T14:43:40;2.58;;;1.90;;
17564;SDS011;62994;52.126;5.596;2023-03-03T14:46:29;3.08;;;1.92;;
17564;SDS011;62994;52.126;5.596;2023-03-03T14:49:06;2.28;;;1.60;;
17564;SDS011;62994;52.126;5.596;2023-03-03T14:51:41;1.98;;;1.60;;
17564;SDS011;62994;52.126;5.596;2023-03-03T14:54:13;3.83;;;1.70;;
17564;SDS011;62994;52.126;5.596;2023-03-03T14:56:57;4.00;;;1.83;;
17564;SDS011;62994;52.126;5.596;2023-03-03T14:59:31;1.80;;;1.70;;
17564;SDS011;62994;52.126;5.596;2023-03-03T15:05:16;2.55;;;1.85;;
17564;SDS011;62994;52.126;5.596;2023-03-03T15:07:46;1.85;;;1.70;;
17564;SDS011;62994;52.126;5.596;2023-03-03T15:10:30;3.13;;;1.83;;
17564;SDS011;62994;52.126;5.596;2023-03-03T15:13:07;2.30;;;1.33;;
17564;SDS011;62994;52.126;5.596;2023-03-03T15:16:02;1.88;;;1.77;;
17564;SDS011;62994;52.126;5.596;2023-03-03T15:21:45;1.55;;;1.45;;
17564;SDS011;62994;52.126;5.596;2023-03-03T15:24:23;2.25;;;1.40;;
17564;SDS011;62994;52.126;5.596;2023-03-03T15:26:56;3.63;;;1.40;;
17564;SDS011;62994;52.126;5.596;2023-03-03T15:29:28;1.40;;;0.93;;
17564;SDS011;62994;52.126;5.596;2023-03-03T15:32:04;4.03;;;1.50;;